Pagrindinis puslapis
METAR-TAF:

METAR-TAF

Oro uostai :

Aden Ade tarptautinis oro uostas

Mogadišas, Somalis

platuma: 02-02N, ilguma: 045-21E, Aukštis: 9 m

Dabartinis oras

Ataskaita buvo paskelbta 7 valandos ir 47 minutes, ne 14:00 UTC
Vėjas 15 kt iš Pietų/Pietvakarių
Temperatūra 27°C
Drėgmė 66%
Slėgis 1011 hPa
Matomumas 10 km arba daugiau
Išsisklaidę debesys ne aukštis 2200 ft
Su prošvaistėmis ne aukštis 11000 ft

METAR: HCMM 171400Z 21015KT 9999 SCT022 BKN110 27/20 Q1011

Laikas: 00:47 (21:47 UTC)


TAF: trūkstamas

Orai ataskaitas ir orų prognozės (METAR, TAF).

turimą stotys yra geltonos ir raudonos taškus žemėlapyje.

Perkelti pele per norėdami pamatyti stoties vardą.

Tada spustelėkite, norėdami matyti oro stebėjimo ir prognozės.

Norėdami pakeisti žemėlapį: spustelėkite ant žalios mygtukų su juodo kryžiaus žemyn,; žalią mygtuką su brūkšneliu, jei norite nutolinti; arba žalių rodyklių gretimoms žemėlapius.


METAR-TAF: